Coloma, WI

2:21 PM CDT on August 31, 2015 (GMT -0500)
Emerald Cove | | Change Station
CLOSE
Current Station
Personal Weather Station
Location: Westfield, WI
Elevation: 945 ft
Nearby Weather Stations

Elev 945 ft 43.89 °N, 89.57 °W | Updated 1 minute ago

Mostly Cloudy
Mostly Cloudy
81.0 °F
Feels Like 84 °F
N
3.2
Wind Variable Wind from SSW

Today
High -- | Low -- °F
--% Chance of Precip.
Yesterday
High -- | Low -- °F
Precip. -- in
6:20 AM 7:36 PM
Waning Gibbous, 94% visible
Pressure 30.02 in
Visibility 10.0 miles
Clouds Scattered Clouds 2400 ft
Heat Index 84 °F
Dew Point 70 °F
Humidity 69%
Rainfall in
Snow Depth Not available.
UV 6 out of 12
Pollen 10.20 out of 12
Air Quality Not available.
Flu Activity Not available.
SPECI KY50 311914Z AUTO 20007KT 10SM SCT024 27/20 A3002 RMK AO2 TSNO
Pressure 30.02 in
Visibility 10.0 miles
Clouds Scattered Clouds 2400 ft
Heat Index 84 °F
Dew Point 70 °F
Humidity 69%
Rainfall in
Snow Depth Not available.
UV 6 out of 12
Pollen 10.20 out of 12
Air Quality Not available.
Flu Activity Not available.
SPECI KY50 311914Z AUTO 20007KT 10SM SCT024 27/20 A3002 RMK AO2 TSNO

10-Day Weather Forecast

×

Almanac

Astronomy

Aug. 31, 2015 Rise Set
Actual Time
Civil Twilight
Nautical Twilight
Astronomical Twilight
Moon
Length of Visible Light
Length of Day
Tomorrow will be .
, % of the Moon is Illuminated

Today's Extremes

State Highs State Lows

Community

WunderPhotos

Upload Photos

1,851,341 photos uploaded!

WunderBlogs® & News

Nearby

Air Quality

  Air Quality AQ Index Pollutant
Not available.

Snow Depth

Station Depth Elevation

Earthquake Activity

City Distance Mag. Time & Date
Minimum magnitude displayed is 2.5.

Coastal Water Temperatures

Place Temperature

Stations

Nearby Weather Stations

Station Location Temp. Windchill Dew Point Humidity Wind Precip. Elev Updated Type